Time;durP1;ratioP1;P1;durP2;ratioP2;P2;SDS_P1;SDS_P2;PMS_P1;PMS_P2;Temp;Humidity;BMP_temperature;BMP_pressure;BME280_temperature;BME280_humidity;BME280_pressure;Samples;Min_cycle;Max_cycle;Signal;HPM_P1;HPM_P2
2023/02/07 00:01:42;;;;;;;9.70;8.20;;;;;;;2.20;55.50;103023.68;106854;1269;22757;-52
2023/02/07 00:04:11;;;;;;;10.20;8.00;;;;;;;2.19;55.43;103024.65;106910;1269;25332;-51
2023/02/07 00:06:40;;;;;;;11.30;8.10;;;;;;;2.19;55.33;103021.71;106160;1270;1002820;-51
2023/02/07 00:09:10;;;;;;;10.30;7.90;;;;;;;2.19;55.30;103032.48;106906;1272;25306;-50
2023/02/07 00:11:39;;;;;;;10.70;7.60;;;;;;;2.18;55.47;103030.77;106231;1269;1002927;-51
2023/02/07 00:14:09;;;;;;;11.10;8.10;;;;;;;2.18;55.18;103028.38;106232;1266;1002487;-51
2023/02/07 00:16:38;;;;;;;11.80;8.30;;;;;;;2.18;55.10;103029.23;106924;1269;24197;-51
2023/02/07 00:19:07;;;;;;;9.80;7.70;;;;;;;2.18;55.33;103033.51;106905;1271;24313;-51
2023/02/07 00:21:36;;;;;;;10.30;8.00;;;;;;;2.19;55.05;103034.73;106854;1269;26475;-50
2023/02/07 00:24:05;;;;;;;12.20;7.50;;;;;;;2.19;55.07;103029.27;106648;1275;25365;-51
2023/02/07 00:26:33;;;;;;;8.40;7.40;;;;;;;2.19;54.99;103025.52;105924;1275;1002680;-51
2023/02/07 00:29:02;;;;;;;12.00;7.80;;;;;;;2.19;55.09;103028.25;105931;1270;1003078;-51
2023/02/07 00:31:32;;;;;;;10.30;6.90;;;;;;;2.19;54.79;103024.27;105671;1270;1003755;-50
2023/02/07 00:34:06;;;;;;;8.50;7.10;;;;;;;2.19;55.20;103028.20;106622;1269;25393;-51
2023/02/07 00:36:36;;;;;;;11.30;7.40;;;;;;;2.19;55.02;103027.88;105997;1266;1002883;-50
2023/02/07 00:39:11;;;;;;;10.20;7.30;;;;;;;2.18;54.73;103031.13;106834;1269;24380;-50
2023/02/07 00:41:40;;;;;;;9.00;7.00;;;;;;;2.18;54.88;103031.96;106115;1272;1003530;-50
2023/02/07 00:44:08;;;;;;;8.30;6.80;;;;;;;2.18;54.62;103029.75;106114;1270;1003810;-52
2023/02/07 00:46:37;;;;;;;9.60;7.00;;;;;;;2.20;54.88;103031.86;106006;1265;1003485;-51
2023/02/07 00:49:06;;;;;;;8.70;7.00;;;;;;;2.20;54.71;103033.77;106431;1272;24370;-52
2023/02/07 00:51:34;;;;;;;8.90;6.80;;;;;;;2.19;54.33;103029.27;106426;1276;25396;-52
2023/02/07 00:54:04;;;;;;;9.50;7.20;;;;;;;2.19;54.38;103024.95;105984;1273;1003152;-51
2023/02/07 00:56:32;;;;;;;11.30;7.70;;;;;;;2.18;54.09;103026.65;105999;1270;1003466;-51
2023/02/07 00:59:01;;;;;;;10.40;7.00;;;;;;;2.17;54.58;103024.34;106747;1273;25311;-51
2023/02/07 01:01:30;;;;;;;8.80;6.80;;;;;;;2.17;53.98;103026.75;106762;1278;25511;-51
2023/02/07 01:03:59;;;;;;;8.60;6.60;;;;;;;2.16;54.18;103028.08;106818;1270;25473;-51
2023/02/07 01:06:32;;;;;;;8.30;6.90;;;;;;;2.15;54.03;103026.52;106008;1278;1002948;-51
2023/02/07 01:09:03;;;;;;;8.50;6.70;;;;;;;2.16;54.23;103022.61;106776;1273;24216;-51
2023/02/07 01:11:31;;;;;;;9.50;7.30;;;;;;;2.15;53.96;103019.80;106760;1272;25393;-52
2023/02/07 01:14:01;;;;;;;10.30;7.10;;;;;;;2.14;54.29;103021.83;106789;1270;22534;-50
2023/02/07 01:16:34;;;;;;;8.10;6.40;;;;;;;2.13;54.13;103021.24;106675;1273;25315;-50
2023/02/07 01:19:07;;;;;;;9.70;7.20;;;;;;;2.12;54.05;103021.74;105727;1270;1003452;-50
2023/02/07 01:21:35;;;;;;;8.40;6.60;;;;;;;2.11;54.03;103023.07;106748;1278;22741;-52
2023/02/07 01:24:05;;;;;;;9.10;6.60;;;;;;;2.11;54.38;103024.25;106819;1273;25330;-49
2023/02/07 01:26:35;;;;;;;7.40;6.60;;;;;;;2.10;53.64;103026.95;106584;1276;23875;-52
2023/02/07 01:29:04;;;;;;;8.60;7.10;;;;;;;2.09;53.31;103022.60;106207;1269;1002861;-52
2023/02/07 01:31:33;;;;;;;8.60;6.90;;;;;;;2.07;53.86;103024.06;106114;1269;1003711;-51
2023/02/07 01:34:02;;;;;;;8.00;6.40;;;;;;;2.08;54.08;103024.10;106123;1269;1003501;-52
2023/02/07 01:36:33;;;;;;;9.90;6.90;;;;;;;2.08;54.02;103026.84;106878;1270;25511;-51
2023/02/07 01:39:02;;;;;;;8.10;6.70;;;;;;;2.08;53.83;103020.00;106901;1269;26619;-52
2023/02/07 01:41:34;;;;;;;9.40;7.00;;;;;;;2.08;53.73;103023.25;106913;1275;25319;-51
2023/02/07 01:44:22;;;;;;;8.50;7.10;;;;;;;2.09;53.82;103024.80;106748;1276;22529;-51
2023/02/07 01:46:51;;;;;;;7.70;6.50;;;;;;;2.08;53.76;103029.06;106378;1269;24258;-51
2023/02/07 01:49:21;;;;;;;8.00;6.90;;;;;;;2.08;53.64;103023.08;106753;1276;25324;-51
2023/02/07 01:52:15;;;;;;;6.90;6.20;;;;;;;2.08;53.59;103025.83;106109;1275;1003362;-50
2023/02/07 01:54:44;;;;;;;8.70;6.30;;;;;;;2.11;53.81;103025.46;106069;1268;1003662;-51
2023/02/07 01:57:15;;;;;;;8.50;6.40;;;;;;;2.14;53.25;103023.71;106422;1277;22526;-51
2023/02/07 01:59:43;;;;;;;9.50;7.60;;;;;;;2.13;53.27;103025.00;106203;1268;1002638;-50
2023/02/07 02:02:14;;;;;;;9.70;7.20;;;;;;;2.11;53.55;103023.54;106120;1276;1003720;-50
2023/02/07 02:04:42;;;;;;;9.00;7.00;;;;;;;2.10;53.52;103023.33;106864;1273;25337;-51
2023/02/07 02:07:12;;;;;;;8.50;6.70;;;;;;;2.09;53.42;103029.25;106762;1271;22536;-50
2023/02/07 02:09:40;;;;;;;8.70;7.20;;;;;;;2.07;53.40;103022.85;106694;1271;24214;-51
2023/02/07 02:12:41;;;;;;;8.80;6.60;;;;;;;2.07;53.39;103027.29;106692;1272;25403;-51
2023/02/07 02:15:47;;;;;;;9.00;7.20;;;;;;;2.06;53.28;103030.13;106844;1272;25358;-50
2023/02/07 02:18:31;;;;;;;8.80;6.60;;;;;;;2.03;53.37;103033.41;105855;1272;1002789;-51
2023/02/07 02:21:26;;;;;;;8.00;6.10;;;;;;;2.02;53.13;103032.02;106436;1272;25431;-51
2023/02/07 02:24:06;;;;;;;7.40;6.50;;;;;;;2.03;53.22;103032.21;106243;1273;22530;-51
2023/02/07 02:26:40;;;;;;;7.50;6.50;;;;;;;2.02;52.92;103033.02;106342;1274;24019;-51
2023/02/07 02:29:21;;;;;;;8.70;6.60;;;;;;;2.02;53.33;103036.45;106339;1273;25341;-51
2023/02/07 02:31:49;;;;;;;8.00;6.20;;;;;;;2.02;52.90;103039.55;106325;1273;25313;-51
2023/02/07 02:34:26;;;;;;;8.10;6.20;;;;;;;2.01;52.79;103037.64;105448;1273;1003442;-50
2023/02/07 02:37:13;;;;;;;7.30;6.20;;;;;;;2.01;52.88;103041.23;106619;1271;22539;-51
2023/02/07 02:39:51;;;;;;;8.40;6.70;;;;;;;2.01;52.55;103041.19;105677;1272;1002884;-51
2023/02/07 02:43:00;;;;;;;8.00;6.30;;;;;;;2.01;52.78;103042.05;106412;1271;22531;-51
2023/02/07 02:45:34;;;;;;;7.40;6.10;;;;;;;2.00;52.32;103042.53;106284;1280;24370;-51
2023/02/07 02:48:04;;;;;;;;;;;;;;;2.00;52.00;103042.02;105384;1276;1003560;-51
2023/02/07 02:50:33;;;;;;;8.20;6.20;;;;;;;2.00;52.22;103043.05;106345;1277;22549;-52
2023/02/07 02:53:01;;;;;;;8.40;6.80;;;;;;;1.98;51.98;103038.16;106427;1279;25278;-51
2023/02/07 02:56:11;;;;;;;8.90;6.40;;;;;;;1.97;52.21;103041.52;106465;1276;24235;-51
2023/02/07 02:58:59;;;;;;;8.80;6.50;;;;;;;1.97;52.23;103046.84;105101;1287;1003653;-52
2023/02/07 03:01:41;;;;;;;7.70;6.10;;;;;;;1.98;52.38;103049.28;105563;1279;1003210;-51
2023/02/07 03:04:15;;;;;;;8.30;6.40;;;;;;;2.00;51.88;103046.81;105512;1282;1003553;-50
2023/02/07 03:06:49;;;;;;;9.10;6.80;;;;;;;2.00;52.03;103054.01;106230;1279;25463;-51
2023/02/07 03:09:27;;;;;;;9.10;5.80;;;;;;;2.01;51.94;103054.53;106126;1285;22680;-51
2023/02/07 03:12:07;;;;;;;7.70;6.60;;;;;;;2.02;51.94;103054.97;106246;1279;25456;-51
2023/02/07 03:14:51;;;;;;;7.60;6.60;;;;;;;2.04;51.94;103053.84;105540;1280;1003810;-51
2023/02/07 03:17:25;;;;;;;8.00;6.60;;;;;;;2.04;51.64;103051.66;105455;1285;1003079;-50
2023/02/07 03:20:03;;;;;;;8.30;6.30;;;;;;;2.04;51.46;103052.46;105510;1279;1003628;-51
2023/02/07 03:22:31;;;;;;;11.40;7.20;;;;;;;2.00;51.25;103053.67;105559;1281;1003190;-51
2023/02/07 03:25:00;;;;;;;8.30;6.50;;;;;;;1.98;51.35;103055.95;105644;1277;1002898;-51
2023/02/07 03:27:29;;;;;;;7.60;5.90;;;;;;;1.97;51.46;103061.02;105656;1282;1002920;-50
2023/02/07 03:29:59;;;;;;;10.20;6.30;;;;;;;1.97;51.28;103055.02;106495;1274;25309;-50
2023/02/07 03:32:33;;;;;;;8.30;6.20;;;;;;;1.96;51.24;103058.94;105543;1279;1003220;-52
2023/02/07 03:35:15;;;;;;;8.60;5.70;;;;;;;1.96;51.34;103052.44;105525;1276;1003649;-50
2023/02/07 03:37:50;;;;;;;7.30;5.70;;;;;;;1.95;51.24;103054.74;106805;1270;25414;-50
2023/02/07 03:40:18;;;;;;;7.10;6.10;;;;;;;1.94;51.37;103053.86;106771;1273;25276;-50
2023/02/07 03:42:53;;;;;;;8.00;6.50;;;;;;;1.91;51.36;103055.77;106738;1258;25347;-51
2023/02/07 03:45:21;;;;;;;8.50;6.80;;;;;;;1.91;51.59;103058.16;106489;1273;24180;-50
2023/02/07 03:47:50;;;;;;;8.40;5.50;;;;;;;1.90;51.55;103058.25;106608;1270;24240;-50
2023/02/07 03:50:19;;;;;;;8.20;6.10;;;;;;;1.87;51.36;103059.00;106648;1270;25403;-50
2023/02/07 03:52:48;;;;;;;7.70;6.10;;;;;;;1.86;51.54;103060.10;106249;1274;25396;-51
2023/02/07 03:55:16;;;;;;;6.90;6.10;;;;;;;1.84;51.74;103059.50;106746;1270;25350;-51
2023/02/07 03:57:44;;;;;;;7.00;5.60;;;;;;;1.82;51.36;103064.86;106922;1268;25309;-50
2023/02/07 04:00:14;;;;;;;7.50;6.30;;;;;;;1.82;51.29;103067.44;106873;1269;24267;-51
2023/02/07 04:02:43;;;;;;;8.50;6.40;;;;;;;1.80;51.19;103069.94;106817;1270;22563;-50
2023/02/07 04:05:11;;;;;;;7.90;6.40;;;;;;;1.77;51.11;103072.67;106084;1269;1003466;-50
2023/02/07 04:07:40;;;;;;;7.00;6.10;;;;;;;1.75;51.41;103072.23;106846;1269;25318;-51
2023/02/07 04:10:09;;;;;;;7.70;5.90;;;;;;;1.75;51.23;103072.58;106819;1257;24194;-50
2023/02/07 04:12:41;;;;;;;8.30;6.60;;;;;;;1.75;51.60;103075.80;106830;1270;25469;-50
2023/02/07 04:15:10;;;;;;;9.30;5.90;;;;;;;1.74;51.33;103081.05;106826;1269;25332;-50
2023/02/07 04:17:38;;;;;;;7.40;6.00;;;;;;;1.70;51.33;103085.82;106875;1273;22755;-52
2023/02/07 04:20:08;;;;;;;6.60;5.60;;;;;;;1.67;51.41;103080.55;106728;1269;22520;-51
2023/02/07 04:22:37;;;;;;;7.80;6.90;;;;;;;1.68;51.75;103087.95;106906;1269;23129;-51
2023/02/07 04:25:06;;;;;;;7.00;6.00;;;;;;;1.68;51.69;103088.30;106745;1270;25328;-50
2023/02/07 04:27:35;;;;;;;10.40;6.60;;;;;;;1.68;51.34;103088.95;106018;1269;1003209;-50
2023/02/07 04:30:04;;;;;;;7.40;6.00;;;;;;;1.68;51.29;103088.94;106858;1269;25342;-51
2023/02/07 04:32:33;;;;;;;8.00;5.80;;;;;;;1.65;51.40;103090.41;106174;1273;1002882;-50
2023/02/07 04:35:02;;;;;;;7.70;5.80;;;;;;;1.65;51.28;103090.23;106126;1270;1002744;-50
2023/02/07 04:37:32;;;;;;;7.30;5.70;;;;;;;1.67;51.46;103095.10;106900;1269;25318;-51
2023/02/07 04:40:01;;;;;;;7.10;5.50;;;;;;;1.69;51.16;103091.41;106922;1269;22528;-51
2023/02/07 04:42:29;;;;;;;9.80;5.90;;;;;;;1.70;50.94;103091.13;106987;1269;22613;-52
2023/02/07 04:44:57;;;;;;;7.50;5.90;;;;;;;1.71;51.01;103087.75;106876;1274;24225;-51
2023/02/07 04:47:26;;;;;;;7.60;5.80;;;;;;;1.73;51.23;103092.46;106786;1270;24337;-50
2023/02/07 04:49:54;;;;;;;8.00;6.20;;;;;;;1.74;51.57;103092.72;106947;1268;25451;-51
2023/02/07 04:55:48;;;;;;;6.80;5.50;;;;;;;1.78;51.40;103087.13;103872;1298;545476;-51
2023/02/07 04:58:16;;;;;;;6.30;5.30;;;;;;;1.77;51.15;103093.05;106063;1281;25413;-51
2023/02/07 05:00:45;;;;;;;9.90;6.50;;;;;;;1.79;51.17;103088.71;106186;1282;22759;-50
2023/02/07 05:03:13;;;;;;;6.50;5.20;;;;;;;1.81;51.32;103092.55;105396;1281;1003299;-50
2023/02/07 05:05:42;;;;;;;6.30;5.20;;;;;;;1.83;50.75;103094.20;105970;1282;25384;-50
2023/02/07 05:08:11;;;;;;;7.50;6.10;;;;;;;1.83;50.75;103103.44;105786;1282;23745;-51
2023/02/07 05:10:39;;;;;;;7.00;5.60;;;;;;;1.83;51.04;103101.71;106044;1282;238684;-50
2023/02/07 05:13:07;;;;;;;6.50;5.10;;;;;;;1.83;51.17;103098.48;106162;1284;25328;-50
2023/02/07 05:15:38;;;;;;;7.00;5.90;;;;;;;1.82;50.96;103106.30;106342;1279;22540;-51
2023/02/07 05:18:07;;;;;;;7.60;6.00;;;;;;;1.81;50.49;103102.96;106179;1286;22660;-50
2023/02/07 05:20:36;;;;;;;7.20;5.50;;;;;;;1.78;50.58;103104.38;105247;1279;1003229;-49
2023/02/07 05:23:04;;;;;;;7.40;5.90;;;;;;;1.75;50.78;103105.94;105183;1282;1003518;-51
2023/02/07 05:25:32;;;;;;;7.30;5.80;;;;;;;1.75;50.83;103107.33;106054;1281;25366;-51
2023/02/07 05:28:01;;;;;;;5.80;4.80;;;;;;;1.74;50.56;103104.15;106126;1282;25346;-51
2023/02/07 05:30:29;;;;;;;6.20;5.60;;;;;;;1.71;50.68;103107.77;106219;1281;25335;-51
2023/02/07 05:33:04;;;;;;;7.20;5.70;;;;;;;1.70;50.99;103108.59;106320;1281;25332;-51
2023/02/07 05:35:37;;;;;;;6.50;5.40;;;;;;;1.71;50.91;103104.17;106283;1279;25350;-51
2023/02/07 05:38:08;;;;;;;7.10;6.00;;;;;;;1.71;50.88;103105.88;106405;1279;22775;-50
2023/02/07 05:40:37;;;;;;;7.50;5.90;;;;;;;1.69;51.11;103102.39;105664;1279;1003222;-51
2023/02/07 05:43:06;;;;;;;7.40;6.50;;;;;;;1.68;50.78;103107.30;106176;1279;22529;-51
2023/02/07 05:45:34;;;;;;;7.80;6.30;;;;;;;1.67;50.80;103104.86;105630;1279;1003032;-52
2023/02/07 05:48:03;;;;;;;7.80;5.90;;;;;;;1.68;50.90;103107.11;105578;1279;1002971;-51
2023/02/07 05:50:32;;;;;;;6.90;5.50;;;;;;;1.68;50.94;103105.21;106221;1279;25331;-52
2023/02/07 05:53:08;;;;;;;5.80;5.20;;;;;;;1.68;51.06;103107.43;106132;1282;25367;-51
2023/02/07 05:55:37;;;;;;;6.50;5.50;;;;;;;1.71;51.25;103111.89;106331;1281;25299;-49
2023/02/07 05:58:06;;;;;;;6.50;5.30;;;;;;;1.73;50.72;103110.26;106443;1279;22543;-50
2023/02/07 06:00:34;;;;;;;7.10;5.70;;;;;;;1.74;50.37;103118.54;106129;1279;25339;-49
2023/02/07 06:03:03;;;;;;;6.80;5.70;;;;;;;1.74;50.26;103112.56;105902;1279;28092;-50
2023/02/07 06:05:32;;;;;;;5.80;5.20;;;;;;;1.73;50.07;103110.48;105277;1284;1003699;-50
2023/02/07 06:08:01;;;;;;;6.80;6.00;;;;;;;1.74;50.19;103107.24;105507;1279;1003756;-50
2023/02/07 06:10:30;;;;;;;6.00;5.40;;;;;;;1.75;50.09;103108.36;105542;1279;1002980;-50
2023/02/07 06:12:58;;;;;;;6.60;5.80;;;;;;;1.76;50.36;103111.45;105640;1279;1003620;-50
2023/02/07 06:15:27;;;;;;;7.70;6.00;;;;;;;1.76;50.20;103107.19;105569;1281;1003034;-51
2023/02/07 06:17:55;;;;;;;6.90;5.60;;;;;;;1.76;49.93;103109.05;106393;1269;1003141;-51
2023/02/07 06:20:24;;;;;;;6.60;5.80;;;;;;;1.75;49.62;103103.68;106217;1268;1003194;-50
2023/02/07 06:22:52;;;;;;;5.80;5.20;;;;;;;1.73;49.41;103106.88;107011;1271;25347;-52
2023/02/07 06:25:21;;;;;;;8.30;6.40;;;;;;;1.73;49.66;103109.59;106046;1271;1003352;-50
2023/02/07 06:27:49;;;;;;;7.10;6.00;;;;;;;1.72;50.00;103109.88;107008;1269;25349;-51
2023/02/07 06:30:18;;;;;;;6.00;5.10;;;;;;;1.73;49.85;103111.30;106342;1268;1002982;-51
2023/02/07 06:32:47;;;;;;;5.80;4.80;;;;;;;1.76;50.02;103107.69;106737;1269;22644;-50
2023/02/07 06:35:16;;;;;;;6.60;5.10;;;;;;;1.79;49.68;103111.30;105970;1271;1003806;-50
2023/02/07 06:37:44;;;;;;;5.20;4.70;;;;;;;1.83;49.48;103114.57;106658;1269;25469;-50
2023/02/07 06:40:12;;;;;;;5.90;4.90;;;;;;;1.86;49.30;103115.06;107047;1266;23393;-51
2023/02/07 06:42:43;;;;;;;7.00;5.50;;;;;;;1.90;49.58;103116.95;107011;1269;22546;-50
2023/02/07 06:45:11;;;;;;;5.90;5.30;;;;;;;1.92;49.23;103112.98;107311;1261;22542;-50
2023/02/07 06:47:42;;;;;;;6.40;5.30;;;;;;;1.92;48.78;103114.37;106931;1269;25517;-51
2023/02/07 06:50:11;;;;;;;7.70;5.40;;;;;;;1.90;48.55;103108.60;107192;1271;25435;-50
2023/02/07 06:52:40;;;;;;;5.80;4.80;;;;;;;1.85;48.48;103107.84;106993;1269;25357;-50
2023/02/07 06:55:09;;;;;;;7.00;5.60;;;;;;;1.83;48.39;103102.90;106644;1275;25320;-50
2023/02/07 06:57:38;;;;;;;6.60;5.70;;;;;;;1.80;48.68;103104.82;106806;1275;25321;-50
2023/02/07 07:00:08;;;;;;;6.70;5.30;;;;;;;1.77;48.54;103105.05;106287;1275;1002987;-50
2023/02/07 07:02:38;;;;;;;6.30;5.40;;;;;;;1.75;48.44;103102.50;106817;1275;25343;-51
2023/02/07 07:05:08;;;;;;;7.40;5.20;;;;;;;1.75;48.64;103109.17;106310;1268;1003130;-50
2023/02/07 07:07:38;;;;;;;6.00;5.20;;;;;;;1.75;48.48;103107.13;106260;1269;1003016;-49
2023/02/07 07:10:07;;;;;;;8.90;5.20;;;;;;;1.77;48.45;103106.36;107121;1266;24871;-50
2023/02/07 07:12:37;;;;;;;6.40;5.00;;;;;;;1.75;47.81;103110.90;106174;1263;1003416;-50
2023/02/07 07:15:06;;;;;;;6.30;4.80;;;;;;;1.74;48.04;103113.60;106040;1275;1003452;-50
2023/02/07 07:17:35;;;;;;;5.90;5.10;;;;;;;1.75;48.06;103116.21;106556;1269;1003201;-50
2023/02/07 07:20:04;;;;;;;6.00;5.00;;;;;;;1.75;48.26;103117.25;107412;1268;24228;-51
2023/02/07 07:22:33;;;;;;;5.00;4.50;;;;;;;1.77;48.27;103118.53;106347;1267;1003440;-50
2023/02/07 07:25:03;;;;;;;5.20;4.70;;;;;;;1.80;47.97;103117.30;106415;1269;1003813;-50
2023/02/07 07:27:32;;;;;;;6.70;5.60;;;;;;;1.80;47.80;103115.60;106247;1259;1003044;-50
2023/02/07 07:30:00;;;;;;;4.90;4.40;;;;;;;1.81;47.72;103116.83;107279;1260;25347;-50
2023/02/07 07:32:29;;;;;;;5.90;4.90;;;;;;;1.79;47.56;103116.59;107212;1270;25357;-51
2023/02/07 07:35:02;;;;;;;5.30;4.70;;;;;;;1.81;47.83;103117.71;106493;1262;1002736;-50
2023/02/07 07:37:31;;;;;;;5.70;4.90;;;;;;;1.83;47.94;103116.09;106314;1259;1003493;-51
2023/02/07 07:39:59;;;;;;;6.30;5.30;;;;;;;1.83;48.08;103121.95;107171;1269;22532;-50
2023/02/07 07:42:28;;;;;;;5.20;4.60;;;;;;;1.82;48.07;103121.55;107025;1269;25347;-51
2023/02/07 07:45:03;;;;;;;6.40;5.30;;;;;;;1.79;47.62;103124.63;106426;1269;1003168;-50
2023/02/07 07:47:32;;;;;;;5.40;4.90;;;;;;;1.76;47.95;103131.52;106265;1275;1003695;-50
2023/02/07 07:50:01;;;;;;;6.00;5.30;;;;;;;1.76;47.70;103134.94;107146;1268;24031;-50
2023/02/07 07:52:30;;;;;;;5.80;5.10;;;;;;;1.77;47.78;103137.17;107176;1262;25322;-51
2023/02/07 07:54:58;;;;;;;6.70;4.80;;;;;;;1.79;48.02;103138.12;106404;1270;1003495;-50
2023/02/07 07:57:27;;;;;;;6.10;4.90;;;;;;;1.80;47.68;103139.92;107162;1270;23262;-51
2023/02/07 07:59:56;;;;;;;6.00;5.20;;;;;;;1.81;47.61;103134.52;107222;1269;22574;-49
2023/02/07 08:02:24;;;;;;;5.30;4.80;;;;;;;1.81;47.79;103138.91;106303;1271;1003787;-50
2023/02/07 08:04:53;;;;;;;5.30;4.70;;;;;;;1.82;47.77;103137.97;106226;1270;1002803;-50
2023/02/07 08:07:22;;;;;;;6.00;5.30;;;;;;;1.85;47.95;103138.80;106694;1275;25344;-50
2023/02/07 08:09:50;;;;;;;7.30;5.80;;;;;;;1.88;47.66;103139.48;107495;1268;25319;-50
2023/02/07 08:12:19;;;;;;;5.90;4.80;;;;;;;1.91;47.96;103139.63;106757;1274;22542;-50
2023/02/07 08:14:48;;;;;;;6.10;5.40;;;;;;;1.95;48.21;103139.17;106916;1272;25422;-50
2023/02/07 08:43:34;;;;;;;6.60;5.30;;;;;;;0.64;50.13;103145.41;104786;1286;1002998;-57
2023/02/07 08:46:01;;;;;;;9.50;7.10;;;;;;;1.73;47.07;103144.17;106746;1282;25456;-58
2023/02/07 08:48:29;;;;;;;8.60;6.60;;;;;;;1.91;46.84;103146.15;106197;1283;25541;-58
2023/02/07 08:50:56;;;;;;;5.80;4.90;;;;;;;1.98;46.02;103144.98;105486;1282;1003629;-59
2023/02/07 08:53:24;;;;;;;4.60;4.20;;;;;;;1.99;44.91;103147.23;105585;1266;1003540;-58
2023/02/07 08:55:51;;;;;;;8.60;6.30;;;;;;;1.96;44.78;103143.17;106255;1273;207986;-58
2023/02/07 08:58:18;;;;;;;7.00;6.10;;;;;;;1.95;45.47;103143.42;106286;1283;25430;-58
2023/02/07 09:00:45;;;;;;;8.20;6.10;;;;;;;1.94;45.29;103144.77;105640;1273;1003682;-59
2023/02/07 09:03:14;;;;;;;7.00;4.90;;;;;;;1.94;45.72;103149.39;107248;1267;25398;-58
2023/02/07 09:05:41;;;;;;;6.90;5.30;;;;;;;1.94;44.95;103144.58;107389;1267;25392;-58
2023/02/07 09:08:08;;;;;;;6.80;4.90;;;;;;;1.97;44.94;103142.52;106307;1267;1003113;-58
2023/02/07 09:10:36;;;;;;;6.80;5.20;;;;;;;2.00;44.75;103142.18;107284;1267;22594;-58
2023/02/07 09:13:04;;;;;;;6.20;5.60;;;;;;;2.02;45.21;103144.98;107241;1266;25375;-58
2023/02/07 09:15:32;;;;;;;5.80;4.90;;;;;;;2.01;44.61;103145.11;107181;1273;23896;-58
2023/02/07 09:17:59;;;;;;;6.10;5.20;;;;;;;1.98;44.66;103139.48;106584;1251;1002914;-59
2023/02/07 09:20:26;;;;;;;8.00;6.30;;;;;;;1.95;45.03;103132.65;107122;1267;26643;-59
2023/02/07 09:25:39;;;;;;;6.90;6.20;;;;;;;1.98;44.80;103123.23;106293;1274;1003723;-59
2023/02/07 09:28:08;;;;;;;8.80;5.90;;;;;;;2.00;44.77;103120.22;106675;1266;1004103;-58
2023/02/07 09:30:35;;;;;;;9.50;7.50;;;;;;;2.02;44.30;103119.30;107215;1263;24212;-59
2023/02/07 09:33:03;;;;;;;7.20;6.10;;;;;;;2.06;44.82;103116.94;106418;1267;1003509;-59
2023/02/07 09:35:30;;;;;;;6.50;5.80;;;;;;;2.10;44.95;103111.02;107289;1270;24295;-59
2023/02/07 09:37:57;;;;;;;6.40;5.20;;;;;;;2.13;45.24;103109.25;105859;1270;1003068;-58
2023/02/07 09:40:24;;;;;;;7.40;5.90;;;;;;;2.13;44.81;103104.78;106330;1260;1003524;-58
2023/02/07 09:43:29;;;;;;;5.60;4.90;;;;;;;2.14;44.89;103104.69;106526;1267;1002728;-58
2023/02/07 09:46:19;;;;;;;8.10;6.40;;;;;;;2.17;44.40;103101.25;106627;1268;1003506;-58
2023/02/07 09:48:52;;;;;;;6.60;5.60;;;;;;;2.16;43.90;103099.17;107212;1272;22531;-58
2023/02/07 09:51:21;;;;;;;6.50;5.10;;;;;;;2.20;43.71;103096.58;107210;1268;22524;-58
2023/02/07 09:53:53;;;;;;;5.90;5.20;;;;;;;2.21;44.65;103088.45;106975;1266;23092;-58
2023/02/07 09:56:22;;;;;;;7.00;5.80;;;;;;;2.23;44.44;103089.39;107129;1273;22507;-58
2023/02/07 09:59:22;;;;;;;7.30;5.30;;;;;;;2.24;44.87;103089.27;107209;1254;22560;-58
2023/02/07 10:01:52;;;;;;;6.20;5.20;;;;;;;2.28;44.90;103084.69;107268;1266;22581;-58
2023/02/07 10:04:20;;;;;;;6.50;5.50;;;;;;;2.32;44.45;103077.50;107125;1267;25341;-58
2023/02/07 10:06:52;;;;;;;6.40;5.50;;;;;;;2.34;44.45;103080.16;107258;1273;26506;-58
2023/02/07 10:09:35;;;;;;;6.20;4.50;;;;;;;2.37;44.28;103080.33;107093;1274;24389;-57
2023/02/07 13:35:33;;;;;;;9.40;7.10;;;;;;;1.23;48.98;103077.77;103963;1296;1003006;-58
2023/02/07 13:38:36;;;;;;;8.30;7.20;;;;;;;2.35;46.29;103069.93;105961;1284;22658;-58
2023/02/07 13:41:18;;;;;;;10.10;7.30;;;;;;;2.56;45.35;103066.84;105961;1281;22623;-58
2023/02/07 13:44:19;;;;;;;8.80;6.70;;;;;;;2.65;44.67;103066.77;106117;1282;25426;-58
2023/02/07 13:47:25;;;;;;;8.30;6.70;;;;;;;2.73;44.52;103064.40;105629;1287;25428;-56
2023/02/07 13:49:54;;;;;;;11.70;7.80;;;;;;;2.79;44.75;103062.78;104286;1297;1002908;-59
2023/02/07 13:52:43;;;;;;;12.10;8.10;;;;;;;2.83;45.17;103065.05;104947;1295;24370;-58
2023/02/07 13:55:38;;;;;;;9.20;7.20;;;;;;;2.86;44.76;103065.55;104509;1291;1002998;-58
2023/02/07 14:01:28;;;;;;;9.70;7.50;;;;;;;2.89;44.51;103069.43;103587;1301;1003044;-58
2023/02/07 14:04:06;;;;;;;9.90;7.70;;;;;;;2.88;44.49;103068.05;104385;1299;1003348;-59
2023/02/07 14:06:41;;;;;;;8.90;7.20;;;;;;;2.88;44.57;103064.42;105211;1293;25425;-59
2023/02/07 14:09:16;;;;;;;9.30;7.40;;;;;;;2.87;44.49;103071.09;105118;1292;25432;-58
2023/02/07 14:11:48;;;;;;;9.60;7.80;;;;;;;2.88;44.26;103074.89;104413;1293;1003230;-58
2023/02/07 14:14:28;;;;;;;8.60;6.90;;;;;;;2.87;44.58;103072.10;104449;1291;1002938;-58
2023/02/07 14:16:59;;;;;;;10.40;7.40;;;;;;;2.87;44.05;103076.74;105201;1292;22558;-57
2023/02/07 14:19:42;;;;;;;10.10;6.60;;;;;;;2.84;43.58;103076.27;105137;1292;24750;-58
2023/02/07 14:22:27;;;;;;;9.50;6.90;;;;;;;2.83;43.87;103080.31;104397;1292;1003047;-58
2023/02/07 14:24:57;;;;;;;9.00;7.00;;;;;;;2.81;43.50;103080.41;105633;1287;22559;-58
2023/02/07 14:27:33;;;;;;;8.20;6.60;;;;;;;2.77;43.31;103081.04;105943;1283;25422;-59
2023/02/07 14:30:11;;;;;;;8.20;6.30;;;;;;;2.74;43.17;103085.33;105843;1284;25422;-59
2023/02/07 14:32:54;;;;;;;8.70;6.60;;;;;;;2.71;43.42;103087.42;105464;1284;1003551;-58
2023/02/07 14:35:21;;;;;;;9.80;7.50;;;;;;;2.68;43.91;103091.23;105684;1287;25373;-58
2023/02/07 14:37:52;;;;;;;9.30;6.60;;;;;;;2.66;43.27;103092.88;105694;1279;1003283;-58
2023/02/07 14:40:43;;;;;;;9.50;7.30;;;;;;;2.64;43.75;103099.80;106724;1270;25415;-58
2023/02/07 14:43:10;;;;;;;8.30;6.80;;;;;;;2.62;43.81;103102.94;105608;1279;1015485;-58
2023/02/07 14:45:49;;;;;;;7.70;6.30;;;;;;;2.58;43.70;103101.05;105487;1278;1003308;-58
2023/02/07 14:48:32;;;;;;;7.70;6.30;;;;;;;2.54;43.09;103099.14;106324;1277;25387;-58
2023/02/07 14:50:59;;;;;;;9.60;7.00;;;;;;;2.52;43.43;103107.23;105600;1262;1005218;-58
2023/02/07 14:53:27;;;;;;;8.40;6.20;;;;;;;2.49;43.09;103106.95;106292;1277;24408;-58
2023/02/07 14:55:55;;;;;;;7.40;6.40;;;;;;;2.47;42.73;103110.44;106199;1278;25369;-58
2023/02/07 14:58:32;;;;;;;7.40;5.80;;;;;;;2.45;43.47;103107.27;106244;1278;22556;-58
2023/02/07 15:00:58;;;;;;;8.40;6.30;;;;;;;2.44;43.93;103108.23;106184;1278;25544;-58
2023/02/07 15:03:29;;;;;;;11.60;6.90;;;;;;;2.44;44.08;103115.59;105500;1278;1002944;-58
2023/02/07 15:05:58;;;;;;;9.30;6.90;;;;;;;2.43;44.27;103115.21;106289;1278;22785;-59
2023/02/07 15:08:27;;;;;;;8.40;6.50;;;;;;;2.42;43.93;103120.30;106223;1278;22537;-59
2023/02/07 15:10:54;;;;;;;8.70;6.90;;;;;;;2.40;43.96;103123.64;106296;1278;25451;-58
2023/02/07 15:13:29;;;;;;;7.70;6.50;;;;;;;2.38;44.12;103126.48;106258;1277;25433;-58
2023/02/07 15:15:58;;;;;;;9.80;6.90;;;;;;;2.37;43.84;103132.73;106227;1278;25368;-58
2023/02/07 15:18:27;;;;;;;8.40;6.60;;;;;;;2.35;43.64;103138.80;106391;1277;22589;-58
2023/02/07 15:20:55;;;;;;;9.50;7.20;;;;;;;2.34;43.89;103140.44;105764;1275;1003147;-58
2023/02/07 15:23:26;;;;;;;9.80;6.90;;;;;;;2.34;44.17;103139.25;106811;1272;22524;-58
2023/02/07 15:25:53;;;;;;;11.90;8.30;;;;;;;2.34;43.70;103140.95;106804;1270;25423;-59
2023/02/07 15:28:20;;;;;;;10.20;7.80;;;;;;;2.33;44.01;103142.95;106010;1272;1003395;-58
2023/02/07 15:31:05;;;;;;;9.20;7.10;;;;;;;2.32;44.06;103143.60;106738;1272;25359;-58
2023/02/07 15:33:56;;;;;;;10.20;6.90;;;;;;;2.32;43.98;103148.39;106387;1270;1002991;-58
2023/02/07 15:36:29;;;;;;;10.00;7.30;;;;;;;2.31;43.81;103146.80;106195;1278;25479;-58
2023/02/07 15:38:57;;;;;;;10.30;7.60;;;;;;;2.30;44.16;103145.75;106191;1278;22546;-58
2023/02/07 15:41:26;;;;;;;8.80;6.30;;;;;;;2.30;43.91;103145.73;106304;1278;22536;-58